createdAt,value
2017-09-11T00:01:12.973Z,98596.91
2017-09-11T00:03:39.449Z,98598.41
2017-09-11T00:06:05.888Z,98608.13
2017-09-11T00:08:32.422Z,98604.35
2017-09-11T00:10:59.580Z,98603.02
2017-09-11T00:13:26.115Z,98600.43
2017-09-11T00:15:52.547Z,98604.80
2017-09-11T00:18:18.985Z,98612.84
2017-09-11T00:20:45.416Z,98600.83
2017-09-11T00:23:11.828Z,98601.20
2017-09-11T00:25:38.270Z,98600.05
2017-09-11T00:28:05.443Z,98596.31
2017-09-11T00:30:31.874Z,98608.88
2017-09-11T00:32:58.501Z,98609.81
2017-09-11T00:35:24.942Z,98606.43
2017-09-11T00:37:51.483Z,98604.14
2017-09-11T00:40:17.918Z,98607.61
2017-09-11T00:42:44.351Z,98606.03
2017-09-11T00:45:11.604Z,98615.07
2017-09-11T00:47:38.145Z,98618.41
2017-09-11T00:50:04.581Z,98622.72
2017-09-11T00:52:30.968Z,98627.18
2017-09-11T00:54:57.451Z,98623.84
2017-09-11T00:57:23.885Z,98623.47
2017-09-11T00:59:50.320Z,98624.98
2017-09-11T01:02:17.459Z,98622.40
2017-09-11T01:04:44.009Z,98618.52
2017-09-11T01:07:10.444Z,98611.55
2017-09-11T01:09:36.878Z,98607.89
2017-09-11T01:12:03.316Z,98607.31
2017-09-11T01:14:29.748Z,98607.41
2017-09-11T01:16:56.166Z,98607.53
2017-09-11T01:19:23.432Z,98604.28
2017-09-11T01:21:49.872Z,98599.00
2017-09-11T01:24:16.372Z,98595.60
2017-09-11T01:26:42.844Z,98602.47
2017-09-11T01:29:09.287Z,98602.69
2017-09-11T01:31:35.642Z,98605.53
2017-09-11T01:34:02.149Z,98605.18
2017-09-11T01:36:29.302Z,98607.38
2017-09-11T01:38:55.736Z,98601.59
2017-09-11T01:41:22.171Z,98584.52
2017-09-11T01:43:48.610Z,98591.95
2017-09-11T01:46:15.026Z,98580.28
2017-09-11T01:48:41.476Z,98585.38
2017-09-11T01:51:07.911Z,98574.27
2017-09-11T01:53:35.164Z,98579.81
2017-09-11T01:56:01.599Z,98582.08
2017-09-11T01:58:28.039Z,98581.98
2017-09-11T02:00:54.469Z,98585.13
2017-09-11T02:03:20.908Z,98587.30
2017-09-11T02:05:47.338Z,98581.84
2017-09-11T02:08:13.774Z,98583.41
2017-09-11T02:10:40.926Z,98591.13
2017-09-11T02:13:07.361Z,98584.16
2017-09-11T02:15:33.794Z,98589.45
2017-09-11T02:18:00.333Z,98590.48
2017-09-11T02:20:26.767Z,98596.53
2017-09-11T02:22:53.202Z,98592.11
2017-09-11T02:25:19.638Z,98588.58
2017-09-11T02:27:46.895Z,98586.06
2017-09-11T02:30:13.327Z,98593.78
2017-09-11T02:32:39.762Z,98587.89
2017-09-11T02:35:06.197Z,98586.06
2017-09-11T02:37:32.631Z,98586.64
2017-09-11T02:39:59.067Z,98586.56
2017-09-11T02:42:25.500Z,98591.39
2017-09-11T02:44:52.653Z,98589.37
2017-09-11T02:47:19.087Z,98589.72
2017-09-11T02:49:45.524Z,98591.91
2017-09-11T02:52:11.958Z,98585.05
2017-09-11T02:54:38.393Z,98590.45
2017-09-11T02:57:04.827Z,98590.36
2017-09-11T02:59:31.262Z,98591.00
2017-09-11T03:01:58.516Z,98592.24
2017-09-11T03:04:24.910Z,98587.42
2017-09-11T03:06:51.283Z,98595.77
2017-09-11T03:09:17.717Z,98597.02
2017-09-11T03:11:44.156Z,98596.95
2017-09-11T03:14:10.589Z,98602.39
2017-09-11T03:16:37.003Z,98604.03
2017-09-11T03:19:04.174Z,98603.78
2017-09-11T03:21:30.610Z,98601.69
2017-09-11T03:23:57.045Z,98607.50
2017-09-11T03:26:23.501Z,98605.63
2017-09-11T03:28:50.016Z,98606.59
2017-09-11T03:31:16.408Z,98609.83
2017-09-11T03:33:42.877Z,98615.03
2017-09-11T03:36:10.038Z,98616.68
2017-09-11T03:38:36.473Z,98616.78
2017-09-11T03:41:02.909Z,98613.97
2017-09-11T03:43:29.346Z,98618.97
2017-09-11T03:45:55.780Z,98613.30
2017-09-11T03:48:22.215Z,98613.34
2017-09-11T03:50:48.649Z,98615.09
2017-09-11T03:53:15.797Z,98621.12
2017-09-11T03:55:42.337Z,98614.64
2017-09-11T03:58:08.875Z,98609.02
2017-09-11T04:00:35.295Z,98606.77
2017-09-11T04:03:01.734Z,98605.33
2017-09-11T04:05:28.178Z,98605.24
2017-09-11T04:07:54.614Z,98606.48
2017-09-11T04:10:21.766Z,98616.63
2017-09-11T04:12:48.202Z,98608.45
2017-09-11T04:15:14.634Z,98609.14
2017-09-11T04:17:41.071Z,98602.16
2017-09-11T04:20:07.504Z,98610.27
2017-09-11T04:22:33.938Z,98613.81
2017-09-11T04:25:00.375Z,98612.15
2017-09-11T04:27:27.630Z,98608.85
2017-09-11T04:29:54.063Z,98605.33
2017-09-11T04:32:20.504Z,98595.38
2017-09-11T04:34:46.935Z,98601.53
2017-09-11T04:37:13.366Z,98597.14
2017-09-11T04:39:39.805Z,98600.30
2017-09-11T04:42:06.344Z,98592.29
2017-09-11T04:44:33.493Z,98593.03
2017-09-11T04:46:59.928Z,98591.88
2017-09-11T04:49:26.345Z,98595.72
2017-09-11T04:51:52.789Z,98599.62
2017-09-11T04:54:19.232Z,98599.77
2017-09-11T04:56:45.666Z,98599.02
2017-09-11T04:59:12.104Z,98602.23
2017-09-11T05:01:39.356Z,98595.70
2017-09-11T05:04:05.792Z,98596.92
2017-09-11T05:06:32.324Z,98591.05
2017-09-11T05:08:58.760Z,98590.52
2017-09-11T05:11:25.197Z,98592.44
2017-09-11T05:13:51.632Z,98594.32
2017-09-11T05:16:18.069Z,98589.38
2017-09-11T05:18:45.321Z,98586.11
2017-09-11T05:21:11.756Z,98586.66
2017-09-11T05:23:38.191Z,98587.35
2017-09-11T05:26:04.628Z,98580.59
2017-09-11T05:28:31.061Z,98579.62
2017-09-11T05:30:57.499Z,98581.08
2017-09-11T05:33:23.931Z,98577.91
2017-09-11T05:35:51.035Z,98585.00
2017-09-11T05:38:17.519Z,98580.48
2017-09-11T05:40:44.055Z,98580.01
2017-09-11T05:43:10.413Z,98581.19
2017-09-11T05:45:36.826Z,98579.10
2017-09-11T05:48:03.256Z,98578.13
2017-09-11T05:50:29.694Z,98579.88
2017-09-11T05:52:56.843Z,98577.78
2017-09-11T05:55:23.278Z,98572.88
2017-09-11T05:57:49.713Z,98565.84
2017-09-11T06:00:16.148Z,98567.61
2017-09-11T06:07:29.422Z,98566.95
2017-09-11T06:37:41.444Z,98572.49
2017-09-11T06:40:07.894Z,98572.81
2017-09-11T06:42:34.480Z,98564.73
2017-09-11T06:45:01.478Z,98579.66
2017-09-11T06:47:28.036Z,98573.59
2017-09-11T06:49:54.448Z,98581.17
2017-09-11T06:52:20.993Z,98582.45
2017-09-11T06:54:47.384Z,98580.98
2017-09-11T06:57:13.808Z,98578.73
2017-09-11T06:59:40.549Z,98580.98
2017-09-11T07:02:06.985Z,98582.63
2017-09-11T07:04:33.788Z,98569.91
2017-09-11T07:07:00.856Z,98582.20
2017-09-11T07:09:27.317Z,98575.14
2017-09-11T07:11:53.795Z,98574.84
2017-09-11T07:14:20.588Z,98574.48
2017-09-11T07:16:47.396Z,98576.86
2017-09-11T07:19:13.869Z,98571.18
2017-09-11T07:21:40.586Z,98573.95
2017-09-11T07:24:07.044Z,98576.55
2017-09-11T07:26:33.592Z,98577.75
2017-09-11T07:29:00.324Z,98570.45
2017-09-11T07:31:26.758Z,98570.63
2017-09-11T07:33:53.141Z,98564.33
2017-09-11T07:36:19.749Z,98559.58
2017-09-11T07:38:46.267Z,98558.98
2017-09-11T07:41:12.703Z,98557.14
2017-09-11T07:43:39.397Z,98546.03
2017-09-11T07:46:05.883Z,98545.19
2017-09-11T07:48:32.436Z,98537.64
2017-09-11T07:50:59.825Z,98537.52
2017-09-11T07:53:26.292Z,98537.61
2017-09-11T07:55:52.743Z,98533.74
2017-09-11T07:58:20.304Z,98537.75
2017-09-11T08:00:46.841Z,98529.78
2017-09-11T08:03:13.276Z,98530.43
2017-09-11T08:05:39.917Z,98524.89
2017-09-11T08:08:06.452Z,98516.02
2017-09-11T08:10:32.895Z,98520.83
2017-09-11T08:12:59.412Z,98514.14
2017-09-11T08:15:26.270Z,98511.89
2017-09-11T08:17:52.807Z,98507.66
2017-09-11T08:20:19.244Z,98511.36
2017-09-11T08:22:45.782Z,98508.72
2017-09-11T08:25:12.216Z,98499.74
2017-09-11T08:27:38.855Z,98499.80
2017-09-11T08:30:05.550Z,98495.70
2017-09-11T08:32:32.045Z,98488.37
2017-09-11T08:52:38.588Z,98461.44
2017-09-11T08:55:06.255Z,98458.24
2017-09-11T08:57:33.748Z,98453.52
2017-09-11T09:00:00.230Z,98453.19
2017-09-11T09:02:26.813Z,98446.63
2017-09-11T09:04:53.373Z,98440.80
2017-09-11T09:07:19.882Z,98437.34
2017-09-11T09:09:46.238Z,98433.41
2017-09-11T09:12:12.842Z,98424.72
2017-09-11T09:14:39.369Z,98422.57
2017-09-11T09:17:05.908Z,98421.64
2017-09-11T09:19:32.648Z,98421.36
2017-09-11T09:22:00.110Z,98416.19
2017-09-11T09:24:26.644Z,98408.72
2017-09-11T09:26:53.193Z,98402.80
2017-09-11T09:29:19.652Z,98401.07
2017-09-11T09:31:46.145Z,98399.11
2017-09-11T09:34:12.558Z,98395.75
2017-09-11T09:36:39.526Z,98386.29
2017-09-11T09:39:05.970Z,98392.10
2017-09-11T09:41:32.365Z,98373.69
2017-09-11T09:43:58.786Z,98370.84
2017-09-11T09:46:25.252Z,98363.76
2017-09-11T09:48:51.709Z,98342.58
2017-09-11T09:51:18.084Z,98352.73
2017-09-11T09:57:11.550Z,98344.66
2017-09-11T10:09:43.387Z,98322.06
2017-09-11T10:12:10.437Z,98317.50
2017-09-11T10:17:08.620Z,98313.28
2017-09-11T10:19:35.072Z,98302.61
2017-09-11T10:22:01.482Z,98309.58
2017-09-11T10:24:27.887Z,98311.67
2017-09-11T10:26:55.292Z,98308.00
2017-09-11T10:29:21.728Z,98303.98
2017-09-11T10:31:48.163Z,98306.15
2017-09-11T10:34:14.616Z,98305.78
2017-09-11T10:36:41.133Z,98306.27
2017-09-11T10:39:07.568Z,98301.02
2017-09-11T10:41:34.004Z,98304.04
2017-09-11T10:44:00.441Z,98293.73
2017-09-11T10:46:26.822Z,98292.86
2017-09-11T10:48:53.410Z,98284.86
2017-09-11T10:51:19.814Z,98291.55
2017-09-11T10:53:46.281Z,98283.63
2017-09-11T10:56:12.718Z,98291.80
2017-09-11T10:58:39.150Z,98264.26
2017-09-11T11:01:05.585Z,98288.00
2017-09-11T11:03:32.020Z,98282.76
2017-09-11T11:05:58.558Z,98281.59
2017-09-11T11:08:24.991Z,98286.66
2017-09-11T11:10:51.427Z,98286.97
2017-09-11T11:13:17.862Z,98283.66
2017-09-11T11:15:44.661Z,98283.36
2017-09-11T11:18:11.122Z,98283.38
2017-09-11T11:20:37.575Z,98275.81
2017-09-11T11:23:04.010Z,98277.21
2017-09-11T11:25:30.446Z,98267.84
2017-09-11T11:27:56.983Z,98267.97
2017-09-11T11:30:23.725Z,98264.59
2017-09-11T11:32:50.265Z,98266.15
2017-09-11T11:35:16.847Z,98261.17
2017-09-11T11:37:43.295Z,98261.80
2017-09-11T11:40:09.775Z,98255.27
2017-09-11T11:42:36.210Z,98264.22
2017-09-11T11:45:02.642Z,98255.78
2017-09-11T11:47:29.251Z,98261.72
2017-09-11T11:49:56.174Z,98251.59
2017-09-11T11:52:22.663Z,98248.60
2017-09-11T11:54:49.360Z,98245.33
2017-09-11T11:57:16.299Z,98244.92
2017-09-11T11:59:42.787Z,98232.50
2017-09-11T12:02:09.324Z,98231.19
2017-09-11T12:04:36.066Z,98238.48
2017-09-11T12:07:02.604Z,98231.07
2017-09-11T12:09:29.038Z,98227.17
2017-09-11T12:11:55.479Z,98216.40
2017-09-11T12:14:22.237Z,98213.91
2017-09-11T12:16:48.652Z,98217.91
2017-09-11T12:19:15.087Z,98213.11
2017-09-11T12:21:41.930Z,98205.95
2017-09-11T12:24:08.365Z,98207.31
2017-09-11T12:26:34.903Z,98203.67
2017-09-11T12:29:01.627Z,98203.16
2017-09-11T12:31:27.975Z,98191.28
2017-09-11T12:33:54.415Z,98196.00
2017-09-11T12:36:20.807Z,98186.58
2017-09-11T12:38:47.383Z,98176.33
2017-09-11T12:41:13.818Z,98189.84
2017-09-11T12:43:40.255Z,98182.30
2017-09-11T12:46:06.791Z,98176.53
2017-09-11T12:48:33.274Z,98171.95
2017-09-11T12:50:59.867Z,98168.20
2017-09-11T12:53:26.710Z,98179.30
2017-09-11T12:55:53.247Z,98172.75
2017-09-11T12:58:19.780Z,98173.55
2017-09-11T13:00:46.319Z,98167.59
2017-09-11T13:03:12.753Z,98164.09
2017-09-11T13:05:39.188Z,98153.73
2017-09-11T13:08:05.931Z,98152.97
2017-09-11T13:10:32.271Z,98147.19
2017-09-11T13:12:59.004Z,98134.48
2017-09-11T13:15:25.710Z,98153.02
2017-09-11T13:17:52.202Z,98144.28
2017-09-11T13:20:18.923Z,98141.86
2017-09-11T13:22:45.302Z,98141.72
2017-09-11T13:25:12.072Z,98132.55
2017-09-11T13:27:38.847Z,98115.84
2017-09-11T13:30:05.383Z,98120.76
2017-09-11T13:32:32.042Z,98119.38
2017-09-11T13:34:58.868Z,98117.77
2017-09-11T13:37:25.388Z,98114.27
2017-09-11T13:39:51.870Z,98118.37
2017-09-11T13:42:18.274Z,98113.63
2017-09-11T13:44:44.665Z,98107.68
2017-09-11T13:47:11.186Z,98104.84
2017-09-11T13:49:37.679Z,98106.59
2017-09-11T13:52:04.113Z,98113.09
2017-09-11T13:54:30.753Z,98098.95
2017-09-11T13:56:57.188Z,98097.75
2017-09-11T13:59:23.725Z,98094.13
2017-09-11T14:01:50.572Z,98091.29
2017-09-11T14:04:17.005Z,98092.48
2017-09-11T14:06:43.440Z,98092.12
2017-09-11T14:09:10.079Z,98094.42
2017-09-11T14:11:36.514Z,98090.21
2017-09-11T14:14:02.972Z,98099.88
2017-09-11T14:16:29.486Z,98101.09
2017-09-11T14:18:56.230Z,98094.41
2017-09-11T14:21:24.023Z,98087.24
2017-09-11T14:23:51.101Z,98083.95
2017-09-11T14:26:18.081Z,98080.67
2017-09-11T14:28:44.631Z,98088.77
2017-09-11T14:31:11.010Z,98081.17
2017-09-11T14:36:13.753Z,98072.70
2017-09-11T14:38:42.954Z,98084.69
2017-09-11T14:41:12.025Z,98078.97
2017-09-11T14:43:38.396Z,98066.47
2017-09-11T14:46:06.458Z,98061.55
2017-09-11T14:48:33.214Z,98060.68
2017-09-11T14:51:00.555Z,98057.55
2017-09-11T14:53:26.950Z,98058.34
2017-09-11T14:55:53.385Z,98048.39
2017-09-11T14:58:19.827Z,98044.56
2017-09-11T15:00:46.309Z,98039.79
2017-09-11T15:03:12.743Z,98042.53
2017-09-11T15:05:39.793Z,98040.93
2017-09-11T15:08:06.228Z,98034.02
2017-09-11T15:10:32.663Z,98040.14
2017-09-11T15:12:59.076Z,98034.61
2017-09-11T15:15:25.486Z,98032.73
2017-09-11T15:17:51.968Z,98024.61
2017-09-11T15:20:18.504Z,98021.81
2017-09-11T15:22:44.940Z,98019.73
2017-09-11T15:25:11.375Z,98020.13
2017-09-11T15:27:37.812Z,98019.91
2017-09-11T15:30:04.199Z,98017.98
2017-09-11T15:32:30.680Z,98010.98
2017-09-11T15:34:57.115Z,98013.31
2017-09-11T15:37:23.548Z,98002.45
2017-09-11T15:39:49.984Z,97996.88
2017-09-11T15:42:16.418Z,97980.81
2017-09-11T15:44:42.803Z,97985.77
2017-09-11T15:47:09.287Z,97983.03
2017-09-11T15:49:35.722Z,97984.44
2017-09-11T15:52:02.161Z,97974.53
2017-09-11T15:54:28.592Z,97975.95
2017-09-11T15:56:55.028Z,97966.92
2017-09-11T15:59:21.975Z,97964.11
2017-09-11T16:01:48.410Z,97962.29
2017-09-11T16:04:14.845Z,97957.93
2017-09-11T16:06:41.997Z,97942.11
2017-09-11T16:09:08.433Z,97964.30
2017-09-11T16:11:34.868Z,97958.78
2017-09-11T16:14:01.303Z,97962.41
2017-09-11T16:16:27.737Z,97954.38
2017-09-11T16:18:54.151Z,97954.94
2017-09-11T16:21:21.445Z,97952.74
2017-09-11T16:23:47.880Z,97956.36
2017-09-11T16:26:14.297Z,97946.95
2017-09-11T16:28:40.836Z,97920.45
2017-09-11T16:31:07.268Z,97943.54
2017-09-11T16:33:33.805Z,97952.63
2017-09-11T16:36:00.242Z,97945.36
2017-09-11T16:38:26.675Z,97939.95
2017-09-11T16:40:53.110Z,97943.97
2017-09-11T16:43:19.545Z,97943.64
2017-09-11T16:45:45.980Z,97939.84
2017-09-11T16:48:12.415Z,97928.72
2017-09-11T16:50:38.849Z,97921.07
2017-09-11T16:53:05.387Z,97914.27
2017-09-11T16:55:31.822Z,97917.66
2017-09-11T16:57:58.206Z,97901.24
2017-09-11T17:00:24.590Z,97917.22
2017-09-11T17:02:51.026Z,97924.01
2017-09-11T17:05:17.411Z,97925.73
2017-09-11T17:07:43.894Z,97934.90
2017-09-11T17:10:10.329Z,97946.66
2017-09-11T17:12:36.764Z,97946.64
2017-09-11T17:15:03.200Z,97941.27
2017-09-11T17:17:29.585Z,97940.53
2017-09-11T17:19:56.077Z,97940.80
2017-09-11T17:22:23.176Z,97933.20
2017-09-11T17:24:49.681Z,97945.46
2017-09-11T17:27:16.094Z,97951.67
2017-09-11T17:29:42.937Z,97951.92
2017-09-11T17:32:09.371Z,97953.31
2017-09-11T17:34:35.806Z,97943.95
2017-09-11T17:37:02.188Z,97955.75
2017-09-11T17:39:28.676Z,97958.48
2017-09-11T17:41:55.112Z,97962.30
2017-09-11T17:44:21.500Z,97961.55
2017-09-11T17:46:47.926Z,97960.05
2017-09-11T17:49:14.385Z,97964.44
2017-09-11T17:51:40.747Z,97964.66
2017-09-11T17:54:07.184Z,97948.28
2017-09-11T17:56:33.616Z,97961.44
2017-09-11T17:59:00.051Z,97970.38
2017-09-11T18:01:26.488Z,97961.70
2017-09-11T18:03:52.920Z,97959.48
2017-09-11T18:06:19.358Z,97956.22
2017-09-11T18:08:45.790Z,97950.09
2017-09-11T18:11:12.175Z,97946.79
2017-09-11T18:13:38.680Z,97933.38
2017-09-11T18:16:05.207Z,97930.53
2017-09-11T18:18:31.633Z,97927.11
2017-09-11T18:20:58.068Z,97924.33
2017-09-11T18:23:24.490Z,97915.05
2017-09-11T18:25:50.886Z,97905.71
2017-09-11T18:28:17.372Z,97903.70
2017-09-11T18:30:43.814Z,97904.27
2017-09-11T18:33:10.344Z,97889.53
2017-09-11T18:35:36.779Z,97876.20
2017-09-11T18:38:03.214Z,97868.98
2017-09-11T18:40:29.649Z,97865.79
2017-09-11T18:42:56.085Z,97832.79
2017-09-11T18:45:23.237Z,97855.23
2017-09-11T18:47:49.679Z,97841.05
2017-09-11T18:50:16.105Z,97827.33
2017-09-11T18:52:42.494Z,97827.67
2017-09-11T18:55:08.974Z,97821.52
2017-09-11T18:57:35.410Z,97812.23
2017-09-11T19:00:01.833Z,97809.17
2017-09-11T19:02:28.248Z,97802.38
2017-09-11T19:04:54.817Z,97803.66
2017-09-11T19:07:21.254Z,97806.66
2017-09-11T19:09:47.687Z,97815.03
2017-09-11T19:12:14.125Z,97812.86
2017-09-11T19:14:40.557Z,97810.98
2017-09-11T19:17:06.993Z,97798.56
2017-09-11T19:19:33.428Z,97794.91
2017-09-11T19:21:59.880Z,97795.95
2017-09-11T19:24:26.243Z,97806.70
2017-09-11T19:26:52.731Z,97815.47
2017-09-11T19:29:19.186Z,97825.28
2017-09-11T19:31:45.601Z,97816.96
2017-09-11T19:34:12.037Z,97821.39
2017-09-11T19:36:38.471Z,97829.53
2017-09-11T19:39:04.905Z,97844.45
2017-09-11T19:41:31.391Z,97851.75
2017-09-11T19:43:57.877Z,97859.13
2017-09-11T19:46:24.312Z,97873.27
2017-09-11T19:48:50.748Z,97881.39
2017-09-11T19:51:17.181Z,97854.00
2017-09-11T19:53:43.619Z,97878.16
2017-09-11T19:56:10.784Z,97886.78
2017-09-11T19:58:37.203Z,97888.98
2017-09-11T20:01:03.638Z,97886.36
2017-09-11T20:03:30.024Z,97893.66
2017-09-11T20:05:56.508Z,97877.13
2017-09-11T20:08:22.860Z,97883.59
2017-09-11T20:10:49.275Z,97881.27
2017-09-11T20:13:15.665Z,97872.79
2017-09-11T20:15:42.146Z,97871.91
2017-09-11T20:18:08.558Z,97869.80
2017-09-11T20:20:34.903Z,97865.51
2017-09-11T20:23:01.343Z,97863.25
2017-09-11T20:25:27.784Z,97856.92
2017-09-11T20:27:54.935Z,97856.39
2017-09-11T20:30:21.370Z,97835.88
2017-09-11T20:32:47.805Z,97811.10
2017-09-11T20:35:14.195Z,97817.52
2017-09-11T20:37:40.693Z,97807.38
2017-09-11T20:40:07.110Z,97799.56
2017-09-11T20:42:34.211Z,97790.17
2017-09-11T20:45:00.680Z,97782.85
2017-09-11T20:47:27.123Z,97772.07
2017-09-11T20:49:53.668Z,97772.56
2017-09-11T20:52:20.308Z,97760.82
2017-09-11T20:54:46.691Z,97759.03
2017-09-11T20:57:13.127Z,97761.17
2017-09-11T20:59:39.619Z,97759.78
2017-09-11T21:02:05.999Z,97767.44
2017-09-11T21:04:32.473Z,97759.34
2017-09-11T21:06:58.917Z,97764.61
2017-09-11T21:09:25.333Z,97760.83
2017-09-11T21:11:51.776Z,97769.48
2017-09-11T21:14:18.135Z,97768.63
2017-09-11T21:16:44.554Z,97767.94
2017-09-11T21:19:10.908Z,97775.41
2017-09-11T21:21:37.322Z,97771.91
2017-09-11T21:24:03.659Z,97770.19
2017-09-11T21:26:30.109Z,97775.21
2017-09-11T21:28:56.487Z,97778.36
2017-09-11T21:31:22.945Z,97776.17
2017-09-11T21:33:49.394Z,97784.50
2017-09-11T21:36:15.834Z,97789.34
2017-09-11T21:38:42.215Z,97800.15
2017-09-11T21:41:08.649Z,97794.39
2017-09-11T21:43:35.030Z,97813.70
2017-09-11T21:46:01.488Z,97810.02
2017-09-11T21:48:27.851Z,97803.76
2017-09-11T21:50:54.323Z,97808.52
2017-09-11T21:53:20.790Z,97802.72
2017-09-11T21:55:47.205Z,97797.09
2017-09-11T21:58:14.357Z,97807.72
2017-09-11T22:00:40.791Z,97812.55
2017-09-11T22:03:07.227Z,97818.34
2017-09-11T22:05:33.661Z,97818.12
2017-09-11T22:08:00.097Z,97819.50
2017-09-11T22:10:26.535Z,97809.95
2017-09-11T22:12:52.968Z,97837.55
2017-09-11T22:15:19.402Z,97849.79
2017-09-11T22:17:45.837Z,97855.70
2017-09-11T22:20:12.199Z,97850.48
2017-09-11T22:22:38.602Z,97843.06
2017-09-11T22:25:05.041Z,97843.30
2017-09-11T22:27:31.475Z,97840.42
2017-09-11T22:29:57.910Z,97850.30
2017-09-11T22:32:24.345Z,97850.77
2017-09-11T22:34:50.779Z,97850.78
2017-09-11T22:37:17.216Z,97848.83
2017-09-11T22:39:43.647Z,97852.61
2017-09-11T22:42:10.039Z,97855.55
2017-09-11T22:44:36.508Z,97858.14
2017-09-11T22:47:02.950Z,97854.13
2017-09-11T22:49:29.334Z,97842.06
2017-09-11T22:51:55.791Z,97836.42
2017-09-11T22:54:22.205Z,97833.05
2017-09-11T22:56:48.590Z,97833.95
2017-09-11T22:59:15.045Z,97833.22
2017-09-11T23:01:41.563Z,97833.63
2017-09-11T23:04:08.797Z,97827.97
2017-09-11T23:06:35.224Z,97822.67
2017-09-11T23:09:01.692Z,97828.81
2017-09-11T23:11:28.127Z,97816.60
2017-09-11T23:13:54.562Z,97813.32
2017-09-11T23:16:20.998Z,97810.67
2017-09-11T23:18:47.432Z,97811.53
2017-09-11T23:21:13.869Z,97805.27
2017-09-11T23:23:40.301Z,97803.48
2017-09-11T23:26:06.737Z,97803.80
2017-09-11T23:28:33.171Z,97786.56
2017-09-11T23:30:59.606Z,97809.30
2017-09-11T23:33:26.042Z,97797.58
2017-09-11T23:35:52.476Z,97799.36
2017-09-11T23:38:18.916Z,97794.47
2017-09-11T23:40:45.449Z,97798.66
2017-09-11T23:43:11.853Z,97791.31
2017-09-11T23:45:38.319Z,97794.03
2017-09-11T23:48:04.753Z,97799.64
2017-09-11T23:50:31.188Z,97788.04
2017-09-11T23:52:58.463Z,97783.03
2017-09-11T23:55:24.979Z,97799.52
2017-09-11T23:57:51.414Z,97792.45
